createdAt,value
2023-12-10T00:00:52.917Z,19.81
2023-12-10T00:03:23.341Z,19.84
2023-12-10T00:06:04.100Z,19.81
2023-12-10T00:08:42.958Z,19.82
2023-12-10T00:11:14.723Z,19.81
2023-12-10T00:13:47.018Z,19.89
2023-12-10T00:16:17.678Z,19.85
2023-12-10T00:18:48.247Z,19.81
2023-12-10T00:21:19.651Z,19.71
2023-12-10T00:23:49.993Z,19.70
2023-12-10T00:26:20.157Z,19.67
2023-12-10T00:28:50.495Z,19.68
2023-12-10T00:31:20.915Z,19.67
2023-12-10T00:33:51.527Z,19.66
2023-12-10T00:36:21.418Z,19.60
2023-12-10T00:38:51.834Z,19.56
2023-12-10T00:41:22.093Z,19.51
2023-12-10T00:43:53.039Z,19.46
2023-12-10T00:46:23.554Z,19.43
2023-12-10T00:48:53.435Z,19.43
2023-12-10T00:51:25.345Z,19.40
2023-12-10T00:53:57.465Z,19.33
2023-12-10T00:56:27.602Z,19.26
2023-12-10T00:58:57.457Z,19.19
2023-12-10T01:01:27.878Z,19.16
2023-12-10T01:03:59.131Z,19.23
2023-12-10T01:06:29.643Z,19.18
2023-12-10T01:08:59.470Z,19.10
2023-12-10T01:11:30.023Z,19.08
2023-12-10T01:13:59.810Z,19.18
2023-12-10T01:16:30.151Z,19.24
2023-12-10T01:19:00.500Z,19.15
2023-12-10T01:21:31.337Z,19.13
2023-12-10T01:24:02.428Z,19.20
2023-12-10T01:26:33.047Z,19.20
2023-12-10T01:29:03.177Z,19.26
2023-12-10T01:31:38.205Z,19.31
2023-12-10T01:34:08.390Z,19.36
2023-12-10T01:36:39.339Z,19.30
2023-12-10T01:39:10.042Z,19.33
2023-12-10T01:41:40.623Z,19.27
2023-12-10T01:44:12.477Z,19.20
2023-12-10T01:46:42.865Z,19.27
2023-12-10T01:49:13.450Z,19.30
2023-12-10T01:51:46.408Z,19.39
2023-12-10T01:54:34.785Z,19.45
2023-12-10T01:57:07.452Z,19.43
2023-12-10T01:59:39.535Z,19.36
2023-12-10T02:02:10.209Z,19.26
2023-12-10T02:04:40.485Z,19.24
2023-12-10T02:07:10.864Z,19.26
2023-12-10T02:09:40.629Z,19.27
2023-12-10T02:12:11.061Z,19.26
2023-12-10T02:14:41.511Z,19.31
2023-12-10T02:17:12.043Z,19.37
2023-12-10T02:19:41.971Z,19.34
2023-12-10T02:22:16.375Z,19.29
2023-12-10T02:25:08.283Z,19.26
2023-12-10T02:27:39.941Z,19.33
2023-12-10T02:30:11.820Z,19.39
2023-12-10T02:32:42.233Z,19.31
2023-12-10T02:35:13.124Z,19.19
2023-12-10T02:37:44.355Z,19.10
2023-12-10T02:40:14.877Z,19.09
2023-12-10T02:42:46.209Z,19.15
2023-12-10T02:45:17.687Z,19.12
2023-12-10T02:47:48.465Z,19.09
2023-12-10T02:50:18.365Z,19.02
2023-12-10T02:52:49.298Z,18.87
2023-12-10T02:55:20.555Z,18.75
2023-12-10T02:57:51.927Z,18.65
2023-12-10T03:00:22.529Z,18.67
2023-12-10T03:02:52.399Z,18.60
2023-12-10T03:05:22.827Z,18.60
2023-12-10T03:07:53.703Z,18.51
2023-12-10T03:10:23.791Z,18.45
2023-12-10T03:12:53.557Z,18.36
2023-12-10T03:15:23.894Z,18.26
2023-12-10T03:17:54.388Z,18.14
2023-12-10T03:20:25.492Z,18.09
2023-12-10T03:22:55.483Z,18.06
2023-12-10T03:25:26.318Z,17.96
2023-12-10T03:27:57.552Z,17.89
2023-12-10T03:30:28.096Z,17.89
2023-12-10T03:32:58.925Z,17.86
2023-12-10T03:35:29.183Z,17.85
2023-12-10T03:37:59.477Z,17.87
2023-12-10T03:40:30.281Z,17.85
2023-12-10T03:43:00.056Z,17.83
2023-12-10T03:45:30.506Z,17.81
2023-12-10T03:48:01.248Z,17.79
2023-12-10T03:50:32.393Z,17.78
2023-12-10T03:53:02.894Z,17.78
2023-12-10T03:55:33.791Z,17.81
2023-12-10T03:58:04.009Z,17.73
2023-12-10T04:00:35.084Z,17.75
2023-12-10T04:03:05.759Z,17.75
2023-12-10T04:05:35.685Z,17.79
2023-12-10T04:08:06.611Z,17.78
2023-12-10T04:10:37.289Z,17.76
2023-12-10T04:13:07.525Z,17.78
2023-12-10T04:15:37.505Z,17.72
2023-12-10T04:18:07.746Z,17.66
2023-12-10T04:20:38.489Z,17.66
2023-12-10T04:23:09.372Z,17.65
2023-12-10T04:25:40.065Z,17.62
2023-12-10T04:28:10.356Z,17.62
2023-12-10T04:30:40.554Z,17.65
2023-12-10T04:33:11.223Z,17.72
2023-12-10T04:35:41.623Z,17.71
2023-12-10T04:38:11.348Z,17.68
2023-12-10T04:40:45.342Z,17.62
2023-12-10T04:43:15.924Z,17.62
2023-12-10T04:45:46.397Z,17.61
2023-12-10T04:48:17.060Z,17.63
2023-12-10T04:50:48.732Z,17.59
2023-12-10T04:53:19.705Z,17.62
2023-12-10T04:55:50.595Z,17.62
2023-12-10T04:58:20.372Z,17.59
2023-12-10T05:00:50.606Z,17.59
2023-12-10T05:03:22.045Z,17.56
2023-12-10T05:05:52.766Z,17.58
2023-12-10T05:08:22.540Z,17.56
2023-12-10T05:10:53.058Z,17.56
2023-12-10T05:13:23.852Z,17.61
2023-12-10T05:15:54.850Z,17.81
2023-12-10T05:18:26.080Z,18.12
2023-12-10T05:20:56.413Z,18.21
2023-12-10T05:23:26.550Z,18.23
2023-12-10T05:25:57.653Z,18.23
2023-12-10T05:28:28.262Z,18.23
2023-12-10T05:30:58.538Z,18.29
2023-12-10T05:33:28.404Z,18.37
2023-12-10T05:35:58.567Z,18.45
2023-12-10T05:38:28.786Z,18.41
2023-12-10T05:40:59.937Z,18.34
2023-12-10T05:43:30.131Z,18.40
2023-12-10T05:46:00.030Z,18.41
2023-12-10T05:48:33.320Z,18.48
2023-12-10T05:51:05.828Z,18.51
2023-12-10T05:53:36.898Z,18.58
2023-12-10T05:56:07.707Z,18.64
2023-12-10T05:58:37.910Z,18.69
2023-12-10T06:01:08.820Z,18.67
2023-12-10T06:03:40.156Z,18.68
2023-12-10T06:06:10.591Z,18.69
2023-12-10T06:08:40.775Z,18.71
2023-12-10T06:11:11.450Z,18.65
2023-12-10T06:13:42.862Z,18.57
2023-12-10T06:16:14.360Z,18.51
2023-12-10T06:18:44.372Z,18.41
2023-12-10T06:21:15.057Z,18.41
2023-12-10T06:23:45.845Z,18.37
2023-12-10T06:26:15.626Z,18.36
2023-12-10T06:28:45.904Z,18.34
2023-12-10T06:31:16.915Z,18.31
2023-12-10T06:33:47.998Z,18.37
2023-12-10T06:36:20.201Z,18.33
2023-12-10T06:38:50.397Z,18.20
2023-12-10T06:41:20.286Z,18.14
2023-12-10T06:43:50.619Z,18.09
2023-12-10T06:46:20.856Z,18.00
2023-12-10T06:48:51.284Z,17.92
2023-12-10T06:51:21.351Z,17.85
2023-12-10T06:53:51.459Z,17.78
2023-12-10T06:56:21.333Z,17.72
2023-12-10T06:58:52.116Z,17.63
2023-12-10T07:01:22.778Z,17.59
2023-12-10T07:03:52.630Z,17.58
2023-12-10T07:06:23.676Z,17.49
2023-12-10T07:08:54.310Z,17.42
2023-12-10T07:11:24.651Z,17.36
2023-12-10T07:13:55.678Z,17.30
2023-12-10T07:16:25.569Z,17.23
2023-12-10T07:18:57.052Z,17.15
2023-12-10T07:21:27.971Z,17.11
2023-12-10T07:23:58.108Z,17.08
2023-12-10T07:26:29.029Z,17.06
2023-12-10T07:29:00.404Z,17.02
2023-12-10T07:31:32.570Z,17.00
2023-12-10T07:34:02.712Z,16.99
2023-12-10T07:36:32.824Z,16.95
2023-12-10T07:39:03.857Z,16.90
2023-12-10T07:41:34.262Z,16.86
2023-12-10T07:44:05.609Z,16.86
2023-12-10T07:46:35.664Z,16.84
2023-12-10T07:49:05.620Z,16.81
2023-12-10T07:51:36.413Z,16.79
2023-12-10T07:54:06.766Z,16.80
2023-12-10T07:56:37.492Z,16.80
2023-12-10T07:59:08.032Z,16.80
2023-12-10T08:01:38.761Z,16.80
2023-12-10T08:04:09.126Z,16.84
2023-12-10T08:06:39.637Z,16.91
2023-12-10T08:09:10.048Z,16.94
2023-12-10T08:11:40.132Z,16.93
2023-12-10T08:14:11.986Z,16.86
2023-12-10T08:16:43.048Z,16.81
2023-12-10T08:19:13.956Z,16.86
2023-12-10T08:21:46.213Z,16.90
2023-12-10T08:24:17.238Z,16.93
2023-12-10T08:26:51.004Z,16.99
2023-12-10T08:29:21.718Z,17.04
2023-12-10T08:31:51.615Z,17.15
2023-12-10T08:34:22.488Z,17.25
2023-12-10T08:36:53.067Z,17.25
2023-12-10T08:39:24.274Z,17.30
2023-12-10T08:41:55.262Z,17.38
2023-12-10T08:44:27.925Z,17.49
2023-12-10T08:46:58.363Z,17.55
2023-12-10T08:49:29.107Z,17.69
2023-12-10T08:51:59.845Z,17.92
2023-12-10T08:54:29.656Z,18.21
2023-12-10T08:56:59.610Z,18.33
2023-12-10T08:59:30.454Z,18.54
2023-12-10T09:02:01.110Z,18.82
2023-12-10T09:04:31.022Z,18.98
2023-12-10T09:07:01.733Z,19.13
2023-12-10T09:09:31.583Z,19.26
2023-12-10T09:12:02.530Z,19.39
2023-12-10T09:14:33.420Z,19.45
2023-12-10T09:17:03.290Z,19.50
2023-12-10T09:19:34.286Z,19.61
2023-12-10T09:22:05.509Z,19.81
2023-12-10T09:24:36.031Z,20.04
2023-12-10T09:27:06.011Z,20.16
2023-12-10T09:29:40.669Z,20.21
2023-12-10T09:32:12.401Z,20.29
2023-12-10T09:34:44.687Z,20.29
2023-12-10T09:37:16.563Z,20.32
2023-12-10T09:39:47.865Z,20.39
2023-12-10T09:42:18.341Z,20.39
2023-12-10T09:44:48.550Z,20.42
2023-12-10T09:47:20.101Z,20.52
2023-12-10T09:49:50.840Z,20.60
2023-12-10T09:52:21.538Z,20.62
2023-12-10T09:54:55.330Z,20.63
2023-12-10T09:57:25.651Z,20.69
2023-12-10T09:59:55.508Z,20.80
2023-12-10T10:02:34.273Z,20.91
2023-12-10T10:05:09.845Z,21.00
2023-12-10T10:07:41.689Z,21.18
2023-12-10T10:10:14.128Z,21.28
2023-12-10T10:12:48.490Z,21.41
2023-12-10T10:15:31.868Z,21.65
2023-12-10T10:18:02.743Z,21.71
2023-12-10T10:20:32.590Z,21.85
2023-12-10T10:23:04.180Z,22.00
2023-12-10T10:25:34.897Z,22.12
2023-12-10T10:28:11.617Z,22.31
2023-12-10T10:30:41.781Z,22.30
2023-12-10T10:33:11.777Z,22.50
2023-12-10T10:35:42.807Z,22.43
2023-12-10T10:38:13.698Z,22.51
2023-12-10T10:40:43.528Z,22.67
2023-12-10T10:43:13.676Z,22.68
2023-12-10T10:45:43.689Z,22.88
2023-12-10T10:48:15.981Z,23.09
2023-12-10T10:50:47.456Z,23.40
2023-12-10T10:53:19.080Z,23.63
2023-12-10T10:55:51.115Z,23.88
2023-12-10T10:58:32.958Z,24.29
2023-12-10T11:01:04.140Z,24.52
2023-12-10T11:03:34.827Z,24.09
2023-12-10T11:06:06.874Z,24.00
2023-12-10T11:08:38.385Z,24.69
2023-12-10T11:11:08.792Z,25.35
2023-12-10T11:13:49.656Z,25.89
2023-12-10T11:16:19.572Z,25.78
2023-12-10T11:19:16.819Z,25.28
2023-12-10T11:21:48.842Z,24.75
2023-12-10T11:24:20.960Z,24.48
2023-12-10T11:26:51.326Z,24.25
2023-12-10T11:29:21.611Z,24.29
2023-12-10T11:31:52.680Z,24.25
2023-12-10T11:34:23.509Z,24.28
2023-12-10T11:36:53.846Z,24.98
2023-12-10T11:39:23.944Z,25.92
2023-12-10T11:41:59.913Z,26.62
2023-12-10T11:44:36.583Z,27.35
2023-12-10T11:47:07.559Z,27.80
2023-12-10T11:49:38.076Z,27.83
2023-12-10T11:52:09.481Z,27.59
2023-12-10T11:54:41.215Z,26.99
2023-12-10T11:57:11.715Z,27.09
2023-12-10T11:59:41.515Z,26.67
2023-12-10T12:02:11.888Z,27.15
2023-12-10T12:04:42.709Z,27.01
2023-12-10T12:07:30.748Z,27.16
2023-12-10T12:10:01.265Z,26.72
2023-12-10T12:12:31.480Z,26.24
2023-12-10T12:15:02.742Z,25.75
2023-12-10T12:17:33.366Z,26.07
2023-12-10T12:20:28.053Z,27.23
2023-12-10T12:22:58.201Z,28.45
2023-12-10T12:25:28.174Z,28.73
2023-12-10T12:27:59.293Z,28.65
2023-12-10T12:30:30.756Z,29.57
2023-12-10T12:33:01.231Z,29.43
2023-12-10T12:35:33.080Z,28.04
2023-12-10T12:38:03.216Z,27.90
2023-12-10T12:40:33.500Z,27.87
2023-12-10T12:43:04.628Z,28.29
2023-12-10T12:45:35.118Z,28.08
2023-12-10T12:48:05.248Z,28.49
2023-12-10T12:50:35.512Z,28.28
2023-12-10T12:53:07.384Z,27.94
2023-12-10T12:55:37.454Z,28.21
2023-12-10T12:58:08.067Z,28.53
2023-12-10T13:00:37.992Z,28.77
2023-12-10T13:03:08.594Z,29.39
2023-12-10T13:05:39.124Z,30.22
2023-12-10T13:08:11.496Z,30.26
2023-12-10T13:10:41.700Z,30.53
2023-12-10T13:13:11.647Z,29.37
2023-12-10T13:15:42.258Z,29.18
2023-12-10T13:18:14.271Z,28.36
2023-12-10T13:20:44.653Z,28.39
2023-12-10T13:23:14.450Z,28.32
2023-12-10T13:25:44.616Z,28.17
2023-12-10T13:28:15.834Z,28.07
2023-12-10T13:30:46.947Z,27.93
2023-12-10T13:33:17.325Z,28.05
2023-12-10T13:35:47.601Z,28.42
2023-12-10T13:38:18.201Z,28.96
2023-12-10T13:40:51.619Z,29.54
2023-12-10T13:43:23.126Z,29.23
2023-12-10T13:45:54.723Z,28.72
2023-12-10T13:48:25.228Z,29.08
2023-12-10T13:50:56.156Z,29.99
2023-12-10T13:53:27.359Z,30.06
2023-12-10T13:55:58.915Z,29.21
2023-12-10T13:58:28.799Z,28.96
2023-12-10T14:00:59.383Z,29.62
2023-12-10T14:03:30.688Z,29.57
2023-12-10T14:06:01.601Z,29.54
2023-12-10T14:08:31.716Z,29.72
2023-12-10T14:11:02.812Z,29.61
2023-12-10T14:13:32.978Z,29.89
2023-12-10T14:16:03.102Z,30.95
2023-12-10T14:18:33.276Z,30.40
2023-12-10T14:21:04.234Z,30.92
2023-12-10T14:23:36.053Z,30.74
2023-12-10T14:26:06.518Z,30.27
2023-12-10T14:28:36.344Z,30.22
2023-12-10T14:31:07.033Z,29.79
2023-12-10T14:33:39.265Z,29.41
2023-12-10T14:36:10.806Z,29.47
2023-12-10T14:38:40.694Z,29.96
2023-12-10T14:41:10.998Z,30.64
2023-12-10T14:43:40.748Z,30.32
2023-12-10T14:46:13.168Z,30.17
2023-12-10T14:48:44.224Z,29.65
2023-12-10T14:51:15.739Z,29.58
2023-12-10T14:53:46.344Z,29.44
2023-12-10T14:56:16.616Z,29.18
2023-12-10T14:58:47.148Z,29.64
2023-12-10T15:01:17.960Z,29.95
2023-12-10T15:03:48.475Z,29.65
2023-12-10T15:06:18.532Z,29.57
2023-12-10T15:08:49.156Z,30.23
2023-12-10T15:11:23.195Z,30.23
2023-12-10T15:13:53.803Z,30.39
2023-12-10T15:16:25.630Z,29.50
2023-12-10T15:18:56.900Z,28.62
2023-12-10T15:21:27.906Z,27.98
2023-12-10T15:23:58.031Z,27.60
2023-12-10T15:26:27.834Z,27.32
2023-12-10T15:28:58.972Z,27.06
2023-12-10T15:31:29.740Z,26.74
2023-12-10T15:34:00.114Z,26.45
2023-12-10T15:36:30.516Z,26.22
2023-12-10T15:39:00.395Z,26.00
2023-12-10T15:41:31.501Z,25.88
2023-12-10T15:44:02.146Z,25.81
2023-12-10T15:46:31.861Z,25.72
2023-12-10T15:49:03.356Z,25.61
2023-12-10T15:51:33.826Z,25.54
2023-12-10T15:54:04.804Z,25.42
2023-12-10T15:56:34.584Z,25.11
2023-12-10T15:59:05.203Z,24.53
2023-12-10T16:01:35.574Z,23.97
2023-12-10T16:04:10.044Z,23.59
2023-12-10T16:06:40.177Z,23.42
2023-12-10T16:09:10.081Z,23.20
2023-12-10T16:11:40.961Z,22.94
2023-12-10T16:14:13.422Z,22.55
2023-12-10T16:16:43.819Z,22.44
2023-12-10T16:19:13.900Z,22.40
2023-12-10T16:21:44.108Z,22.39
2023-12-10T16:24:14.429Z,22.30
2023-12-10T16:26:44.899Z,22.30
2023-12-10T16:29:15.289Z,22.24
2023-12-10T16:31:45.048Z,22.18
2023-12-10T16:34:16.342Z,22.20
2023-12-10T16:36:48.808Z,22.14
2023-12-10T16:39:19.054Z,22.02
2023-12-10T16:41:48.785Z,21.94
2023-12-10T16:44:19.230Z,21.81
2023-12-10T16:46:49.013Z,21.69
2023-12-10T16:49:19.866Z,21.65
2023-12-10T16:51:50.380Z,21.69
2023-12-10T16:54:20.477Z,21.67
2023-12-10T16:56:51.194Z,21.72
2023-12-10T16:59:22.978Z,21.92
2023-12-10T17:01:54.908Z,22.03
2023-12-10T17:04:25.301Z,22.13
2023-12-10T17:06:55.164Z,22.27
2023-12-10T17:09:25.430Z,22.25
2023-12-10T17:11:57.585Z,22.23
2023-12-10T17:14:29.140Z,22.21
2023-12-10T17:16:59.888Z,22.12
2023-12-10T17:19:32.050Z,22.14
2023-12-10T17:22:02.358Z,22.14
2023-12-10T17:24:32.925Z,22.14
2023-12-10T17:27:03.518Z,22.23
2023-12-10T17:29:33.842Z,22.33
2023-12-10T17:32:04.081Z,22.44
2023-12-10T17:34:34.528Z,22.50
2023-12-10T17:37:06.659Z,22.50
2023-12-10T17:39:37.643Z,22.71
2023-12-10T17:42:08.013Z,23.03
2023-12-10T17:44:47.325Z,23.10
2023-12-10T17:47:25.514Z,23.12
2023-12-10T17:49:55.811Z,23.13
2023-12-10T17:52:25.692Z,23.24
2023-12-10T17:54:55.822Z,23.51
2023-12-10T17:57:26.122Z,23.70
2023-12-10T17:59:57.157Z,23.89
2023-12-10T18:02:27.498Z,24.21
2023-12-10T18:04:57.459Z,25.04
2023-12-10T18:07:28.517Z,26.00
2023-12-10T18:09:59.094Z,25.58
2023-12-10T18:12:29.380Z,25.35
2023-12-10T18:14:59.830Z,24.98
2023-12-10T18:17:31.012Z,25.38
2023-12-10T18:20:02.334Z,25.88
2023-12-10T18:22:33.118Z,26.41
2023-12-10T18:25:04.828Z,27.26
2023-12-10T18:27:39.047Z,26.48
2023-12-10T18:30:10.162Z,25.51
2023-12-10T18:32:41.083Z,25.30
2023-12-10T18:35:11.818Z,25.31
2023-12-10T18:37:41.667Z,26.13
2023-12-10T18:40:12.967Z,25.94
2023-12-10T18:42:44.190Z,25.48
2023-12-10T18:45:14.407Z,25.08
2023-12-10T18:47:44.332Z,24.88
2023-12-10T18:50:15.523Z,24.93
2023-12-10T18:52:46.380Z,24.96
2023-12-10T18:55:17.813Z,24.91
2023-12-10T18:57:47.981Z,25.08
2023-12-10T19:00:19.923Z,25.18
2023-12-10T19:02:51.119Z,25.33
2023-12-10T19:05:22.577Z,25.35
2023-12-10T19:07:52.907Z,25.52
2023-12-10T19:10:23.239Z,25.62
2023-12-10T19:12:54.025Z,25.57
2023-12-10T19:15:24.311Z,25.46
2023-12-10T19:17:54.784Z,25.34
2023-12-10T19:20:28.420Z,25.34
2023-12-10T19:22:59.025Z,25.46
2023-12-10T19:25:30.144Z,25.33
2023-12-10T19:28:00.349Z,25.23
2023-12-10T19:30:30.841Z,25.34
2023-12-10T19:33:02.881Z,25.42
2023-12-10T19:35:33.984Z,25.33
2023-12-10T19:38:05.364Z,25.45
2023-12-10T19:40:35.931Z,25.71
2023-12-10T19:43:08.328Z,25.82
2023-12-10T19:45:38.982Z,25.61
2023-12-10T19:48:10.046Z,25.44
2023-12-10T19:50:44.784Z,25.38
2023-12-10T19:53:15.770Z,25.37
2023-12-10T19:55:49.050Z,25.37
2023-12-10T19:58:20.302Z,25.35
2023-12-10T20:00:50.345Z,25.20
2023-12-10T20:03:20.510Z,24.94
2023-12-10T20:05:50.826Z,24.63
2023-12-10T20:08:21.354Z,24.39
2023-12-10T20:10:53.053Z,24.24
2023-12-10T20:13:23.526Z,24.24
2023-12-10T20:15:54.026Z,24.21
2023-12-10T20:18:25.980Z,24.18
2023-12-10T20:20:56.908Z,24.28
2023-12-10T20:23:27.580Z,24.35
2023-12-10T20:25:59.842Z,24.51
2023-12-10T20:28:31.153Z,24.55
2023-12-10T20:31:01.336Z,24.55
2023-12-10T20:33:35.122Z,24.59
2023-12-10T20:36:06.380Z,24.46
2023-12-10T20:38:37.897Z,24.48
2023-12-10T20:41:09.624Z,24.51
2023-12-10T20:43:40.403Z,24.55
2023-12-10T20:46:11.150Z,24.49
2023-12-10T20:48:42.611Z,24.48
2023-12-10T20:51:13.108Z,24.52
2023-12-10T20:53:42.888Z,24.57
2023-12-10T20:56:13.536Z,24.38
2023-12-10T20:58:44.022Z,24.24
2023-12-10T21:01:15.068Z,24.14
2023-12-10T21:03:45.283Z,24.01
2023-12-10T21:06:17.268Z,23.88
2023-12-10T21:08:48.343Z,23.84
2023-12-10T21:11:21.399Z,23.82
2023-12-10T21:13:52.026Z,23.81
2023-12-10T21:16:23.356Z,23.73
2023-12-10T21:18:53.921Z,23.61
2023-12-10T21:21:24.626Z,23.57
2023-12-10T21:23:54.334Z,23.54
2023-12-10T21:26:25.029Z,23.51
2023-12-10T21:28:56.228Z,23.47
2023-12-10T21:31:26.572Z,23.42
2023-12-10T21:33:56.479Z,23.30
2023-12-10T21:36:27.043Z,23.23
2023-12-10T21:38:57.383Z,23.19
2023-12-10T21:41:28.442Z,23.12
2023-12-10T21:43:58.411Z,23.02
2023-12-10T21:46:29.882Z,22.95
2023-12-10T21:49:01.113Z,22.85
2023-12-10T21:51:32.344Z,22.79
2023-12-10T21:54:08.411Z,22.68
2023-12-10T21:56:42.498Z,22.55
2023-12-10T21:59:13.009Z,22.45
2023-12-10T22:01:44.516Z,22.34
2023-12-10T22:04:14.614Z,22.23
2023-12-10T22:06:44.828Z,22.18
2023-12-10T22:09:15.210Z,22.13
2023-12-10T22:11:46.002Z,22.04
2023-12-10T22:14:17.750Z,22.00
2023-12-10T22:16:47.746Z,21.97
2023-12-10T22:19:17.854Z,21.86
2023-12-10T22:21:49.662Z,21.83
2023-12-10T22:24:20.655Z,21.75
2023-12-10T22:26:50.952Z,21.65
2023-12-10T22:29:20.664Z,21.66
2023-12-10T22:31:51.224Z,21.59
2023-12-10T22:34:21.916Z,21.49
2023-12-10T22:36:52.820Z,21.42
2023-12-10T22:39:22.716Z,21.37
2023-12-10T22:41:53.417Z,21.35
2023-12-10T22:44:24.078Z,21.41
2023-12-10T22:46:55.063Z,21.49
2023-12-10T22:49:26.137Z,21.46
2023-12-10T22:51:57.093Z,21.45
2023-12-10T22:54:27.207Z,21.48
2023-12-10T22:56:57.679Z,21.56
2023-12-10T22:59:28.394Z,21.56
2023-12-10T23:01:59.066Z,21.55
2023-12-10T23:04:29.969Z,21.54
2023-12-10T23:07:01.143Z,21.58
2023-12-10T23:09:31.818Z,21.63
2023-12-10T23:12:01.807Z,21.72
2023-12-10T23:14:33.072Z,21.81
2023-12-10T23:17:04.006Z,21.92
2023-12-10T23:19:35.224Z,21.89
2023-12-10T23:22:05.790Z,21.88
2023-12-10T23:24:35.654Z,21.88
2023-12-10T23:27:06.284Z,21.85
2023-12-10T23:29:36.802Z,21.79
2023-12-10T23:32:07.443Z,21.81
2023-12-10T23:34:37.428Z,21.83
2023-12-10T23:37:08.266Z,21.82
2023-12-10T23:39:39.611Z,21.88
2023-12-10T23:42:09.692Z,21.89
2023-12-10T23:44:39.637Z,21.83
2023-12-10T23:47:11.693Z,21.75
2023-12-10T23:49:43.143Z,21.78
2023-12-10T23:52:13.629Z,21.67
2023-12-10T23:54:43.592Z,21.61
2023-12-10T23:57:15.869Z,21.52
2023-12-10T23:59:46.297Z,21.49
